createdAt,value
2023-03-23T16:01:50.363Z,16.00
2023-03-23T16:05:53.211Z,16.10
2023-03-23T16:09:56.082Z,16.30
2023-03-23T16:13:58.942Z,16.40
2023-03-23T16:18:03.099Z,16.60
2023-03-23T16:22:05.929Z,16.70
2023-03-23T16:26:08.722Z,16.70
2023-03-23T16:30:15.720Z,16.70
2023-03-23T16:34:19.878Z,16.60
2023-03-23T16:38:22.677Z,16.30
2023-03-23T16:42:25.596Z,16.00
2023-03-23T16:46:29.620Z,15.90
2023-03-23T16:50:33.982Z,15.70
2023-03-23T16:54:36.797Z,15.60
2023-03-23T16:58:39.651Z,15.40
2023-03-23T17:02:42.932Z,15.20
2023-03-23T17:06:47.316Z,15.10
2023-03-23T17:10:50.566Z,14.90
2023-03-23T17:14:53.397Z,14.80
2023-03-23T17:18:56.388Z,14.60
2023-03-23T17:23:00.781Z,14.60
2023-03-23T17:27:03.637Z,14.50
2023-03-23T17:31:07.482Z,14.40
2023-03-23T17:35:10.708Z,14.30
2023-03-23T17:39:14.865Z,14.20
2023-03-23T17:43:17.662Z,14.10
2023-03-23T17:47:20.586Z,14.00
2023-03-23T17:51:23.369Z,13.90
2023-03-23T17:55:28.575Z,13.80
2023-03-23T17:59:31.720Z,13.80
2023-03-23T18:03:34.641Z,13.60
2023-03-23T18:07:37.496Z,13.60
2023-03-23T18:11:41.624Z,13.50
2023-03-23T18:15:46.678Z,13.40
2023-03-23T18:19:52.854Z,13.40
2023-03-23T18:23:59.544Z,13.30
2023-03-23T18:28:06.213Z,13.30
2023-03-23T18:32:10.083Z,13.30
2023-03-23T18:36:13.435Z,13.30
2023-03-23T18:40:17.524Z,13.20
2023-03-23T18:44:21.859Z,13.20
2023-03-23T18:48:25.358Z,13.20
2023-03-23T18:52:30.843Z,13.20
2023-03-23T18:56:33.736Z,13.20
2023-03-23T19:00:38.324Z,13.20
2023-03-23T19:04:41.180Z,13.20
2023-03-23T19:08:45.396Z,13.20
2023-03-23T19:12:49.785Z,13.20
2023-03-23T19:16:53.939Z,13.20
2023-03-23T19:25:03.218Z,13.10
2023-03-23T19:33:26.824Z,13.10
2023-03-23T19:37:34.774Z,13.00
2023-03-23T19:41:38.263Z,12.90
2023-03-23T19:45:42.475Z,12.80
2023-03-23T19:49:46.854Z,12.80
2023-03-23T19:54:13.268Z,12.70
2023-03-23T19:58:16.648Z,12.70
2023-03-23T20:02:19.582Z,12.60
2023-03-23T20:06:24.694Z,12.60
2023-03-23T20:10:27.615Z,12.60
2023-03-23T20:14:32.538Z,12.50
2023-03-23T20:18:36.784Z,12.50
2023-03-23T20:22:41.448Z,12.50
2023-03-23T20:26:51.309Z,12.40
2023-03-23T20:31:19.434Z,12.40
2023-03-23T20:35:25.308Z,12.40
2023-03-23T20:39:30.852Z,12.40
2023-03-23T20:43:34.798Z,12.40
2023-03-23T20:47:37.605Z,12.40
2023-03-23T20:51:43.913Z,12.40
2023-03-23T20:55:49.849Z,12.40
2023-03-23T20:59:53.371Z,12.40
2023-03-23T21:03:58.620Z,12.40
2023-03-23T21:08:03.508Z,12.40
2023-03-23T21:12:09.514Z,12.40
2023-03-23T21:16:12.533Z,12.40
2023-03-23T21:20:23.898Z,12.40
2023-03-23T21:24:28.377Z,12.40
2023-03-23T21:28:32.832Z,12.40
2023-03-23T21:32:37.005Z,12.40
2023-03-23T21:36:39.831Z,12.40
2023-03-23T21:40:43.260Z,12.40
2023-03-23T21:44:48.824Z,12.40
2023-03-23T21:48:51.983Z,12.30
2023-03-23T21:52:54.802Z,12.30
2023-03-23T21:56:58.748Z,12.30
2023-03-23T22:01:03.031Z,12.30
2023-03-23T22:05:06.395Z,12.30
2023-03-23T22:09:09.700Z,12.30
2023-03-23T22:13:12.964Z,12.30
2023-03-23T22:17:19.290Z,12.30
2023-03-23T22:21:23.023Z,12.30
2023-03-23T22:25:25.849Z,12.40
2023-03-23T22:29:30.626Z,12.40
2023-03-23T22:33:35.548Z,12.40
2023-03-23T22:37:43.749Z,12.40
2023-03-23T22:41:46.633Z,12.40
2023-03-23T22:45:50.971Z,12.40
2023-03-23T22:49:57.418Z,12.50
2023-03-23T22:54:00.230Z,12.50
2023-03-23T22:58:04.128Z,12.50
2023-03-23T23:02:09.079Z,12.50
2023-03-23T23:06:14.436Z,12.60
2023-03-23T23:10:25.375Z,12.60
2023-03-23T23:14:28.191Z,12.60
2023-03-23T23:18:33.197Z,12.70
2023-03-23T23:22:37.365Z,12.70
2023-03-23T23:26:40.192Z,12.70
2023-03-23T23:30:43.708Z,12.80
2023-03-23T23:34:46.856Z,12.80
2023-03-23T23:38:51.544Z,12.80
2023-03-23T23:42:54.532Z,12.90
2023-03-23T23:46:57.752Z,12.90
2023-03-23T23:51:00.649Z,12.90
2023-03-23T23:55:05.361Z,12.90
2023-03-23T23:59:08.148Z,13.00
